Desert Lake Discharge




Date Panel Temperature (degC) Canal Conductivity (mS/m) Canal Flow (cfs) Canal Height (ft) Water Temperature (degC) Air Temperature (degF) Water Balance (pH) Canal Conductivity in micro-Siemens (┬ÁS/cm)
03/01/2018 0.11 0.79 108.00
03/02/2018 0.10 0.73 102.00
03/03/2018 0.11 0.68 105.00
03/04/2018 0.10 0.64 104.00
03/05/2018 0.07 0.56 67.00
03/06/2018 0.07 0.50 66.00
03/07/2018 0.06 0.48 63.00
03/08/2018 0.06 0.41 57.00
03/09/2018 0.04 0.38 44.00
03/10/2018 0.04 0.33 42.00
03/11/2018 0.03 0.28 31.00
03/12/2018 0.03 0.25 28.00
03/13/2018 0.02 0.26 20.00
03/14/2018 0.03 0.28 30.00
03/15/2018 0.04 0.32 44.00
03/16/2018 0.04 0.32 40.00
03/17/2018 0.04 0.29 41.00
03/18/2018 0.06 0.36 62.00
03/19/2018 0.03 0.28 34.00
03/20/2018 0.04 0.29 36.00
03/21/2018 0.04 0.32 41.00
03/22/2018 0.06 0.34 59.00
03/23/2018 0.04 0.31 43.00
03/24/2018 0.06 0.34 57.00
03/25/2018 0.05 0.32 47.00
03/26/2018 0.06 0.39 61.00
03/27/2018 0.05 0.37 52.00
03/28/2018 0.06 0.36 62.00
03/29/2018 0.04 0.32 37.00
03/30/2018 0.04 0.28 38.00
03/31/2018 0.02 0.21 18.00
Average 0.39
Maximum 0.79
Minimum 0.21
Total Volume (AF) 23.78